createdAt,value
2024-05-09T03:32:13.641Z,92164.41
2024-05-09T03:34:40.646Z,92163.66
2024-05-09T03:37:07.682Z,92160.06
2024-05-09T03:39:34.659Z,92162.47
2024-05-09T03:42:01.610Z,92157.66
2024-05-09T03:44:28.660Z,92168.78
2024-05-09T03:46:55.713Z,92161.09
2024-05-09T03:49:22.936Z,92164.00
2024-05-09T03:51:49.910Z,92162.91
2024-05-09T03:54:16.880Z,92168.81
2024-05-09T03:56:43.990Z,92174.09
2024-05-09T03:59:11.038Z,92176.19
2024-05-09T04:01:38.114Z,92177.47
2024-05-09T04:04:05.148Z,92175.84
2024-05-09T04:06:32.172Z,92184.19
2024-05-09T04:08:59.141Z,92181.63
2024-05-09T04:11:26.174Z,92180.41
2024-05-09T04:13:53.271Z,92182.69
2024-05-09T04:16:20.371Z,92179.88
2024-05-09T04:18:47.422Z,92185.66
2024-05-09T04:21:14.463Z,92189.56
2024-05-09T04:23:41.510Z,92194.44
2024-05-09T04:26:08.638Z,92184.28
2024-05-09T04:28:35.677Z,92180.41
2024-05-09T04:31:02.646Z,92184.59
2024-05-09T04:33:29.831Z,92189.41
2024-05-09T04:35:56.959Z,92195.41
2024-05-09T04:38:23.971Z,92194.53
2024-05-09T04:40:50.996Z,92194.56
2024-05-09T04:43:17.960Z,92195.88
2024-05-09T04:45:44.912Z,92203.81
2024-05-09T04:48:12.123Z,92203.63
2024-05-09T04:50:39.982Z,92205.66
2024-05-09T04:53:08.149Z,92199.94
2024-05-09T04:55:36.628Z,92212.25
2024-05-09T04:58:03.663Z,92204.28
2024-05-09T05:00:36.350Z,92212.75
2024-05-09T05:03:05.281Z,92212.56
2024-05-09T05:05:32.534Z,92211.34
2024-05-09T05:07:59.637Z,92211.50
2024-05-09T05:10:33.778Z,92218.47
2024-05-09T05:13:03.532Z,92212.75
2024-05-09T05:15:30.524Z,92210.03
2024-05-09T05:17:57.648Z,92204.53
2024-05-09T05:20:32.539Z,92203.25
2024-05-09T05:23:01.052Z,92205.44
2024-05-09T05:25:28.202Z,92204.63
2024-05-09T05:27:55.171Z,92210.03
2024-05-09T05:30:28.735Z,92208.28
2024-05-09T05:33:00.247Z,92211.88
2024-05-09T05:35:27.467Z,92213.94
2024-05-09T05:37:54.471Z,92218.31
2024-05-09T05:40:28.518Z,92222.47
2024-05-09T05:43:02.673Z,92210.47
2024-05-09T05:45:29.728Z,92220.38
2024-05-09T05:47:57.023Z,92226.56
2024-05-09T05:50:31.924Z,92225.50
2024-05-09T05:53:02.642Z,92224.34
2024-05-09T05:55:29.664Z,92231.28
2024-05-09T05:57:56.706Z,92231.44
2024-05-09T06:00:29.962Z,92222.00
2024-05-09T06:03:04.442Z,92218.09
2024-05-09T06:05:31.719Z,92215.53
2024-05-09T06:07:58.830Z,92208.72
2024-05-09T06:10:30.265Z,92208.94
2024-05-09T06:13:04.440Z,92206.22
2024-05-09T06:15:31.416Z,92213.47
2024-05-09T06:17:58.621Z,92209.28
2024-05-09T06:20:34.680Z,92204.19
2024-05-09T06:23:04.408Z,92213.41
2024-05-09T06:25:31.705Z,92206.22
2024-05-09T06:27:58.733Z,92198.22
2024-05-09T06:30:34.437Z,92200.97
2024-05-09T06:33:06.070Z,92202.63
2024-05-09T06:35:33.646Z,92211.28
2024-05-09T06:38:01.366Z,92206.88
2024-05-09T06:40:36.447Z,92210.94
2024-05-09T06:43:06.002Z,92217.47
2024-05-09T06:45:32.970Z,92216.50
2024-05-09T06:48:00.207Z,92210.00
2024-05-09T06:50:31.136Z,92220.78
2024-05-09T06:53:02.835Z,92225.78
2024-05-09T06:55:29.842Z,92228.72
2024-05-09T06:57:56.786Z,92223.34
2024-05-09T07:00:30.737Z,92220.69
2024-05-09T07:03:05.978Z,92232.66
2024-05-09T07:05:33.356Z,92225.25
2024-05-09T07:08:00.546Z,92219.75
2024-05-09T07:10:33.104Z,92222.59
2024-05-09T07:13:02.425Z,92222.72
2024-05-09T07:15:29.449Z,92219.44
2024-05-09T07:17:56.592Z,92215.13
2024-05-09T07:20:32.175Z,92218.72
2024-05-09T07:23:01.981Z,92220.16
2024-05-09T07:25:29.198Z,92219.34
2024-05-09T07:27:56.307Z,92221.84
2024-05-09T07:30:27.939Z,92216.66
2024-05-09T07:33:00.602Z,92221.06
2024-05-09T07:35:28.049Z,92220.91
2024-05-09T07:37:55.086Z,92222.00
2024-05-09T07:40:31.611Z,92219.06
2024-05-09T07:43:02.486Z,92227.09
2024-05-09T07:45:45.697Z,92221.22
2024-05-09T07:49:45.434Z,92214.16
2024-05-09T07:53:40.926Z,92220.34
2024-05-09T07:56:12.372Z,92222.44
2024-05-09T07:58:39.727Z,92212.81
2024-05-09T08:01:06.999Z,92212.69
2024-05-09T08:03:34.454Z,92212.81
2024-05-09T08:06:01.641Z,92209.72
2024-05-09T08:08:28.649Z,92211.34
2024-05-09T08:10:55.689Z,92212.69
2024-05-09T08:13:22.949Z,92207.22
2024-05-09T08:15:50.091Z,92213.56
2024-05-09T08:18:17.200Z,92213.97
2024-05-09T08:20:44.254Z,92208.53
2024-05-09T08:23:11.246Z,92212.09
2024-05-09T08:25:38.208Z,92207.94
2024-05-09T08:28:05.292Z,92204.88
2024-05-09T08:30:36.874Z,92208.81
2024-05-09T08:33:05.964Z,92206.94
2024-05-09T08:35:33.789Z,92205.41
2024-05-09T08:38:00.443Z,92200.88
2024-05-09T08:40:34.064Z,92199.81
2024-05-09T08:43:03.058Z,92205.44
2024-05-09T08:45:29.924Z,92203.56
2024-05-09T08:47:56.794Z,92201.06
2024-05-09T08:50:32.165Z,92194.69
2024-05-09T08:53:04.813Z,92201.19
2024-05-09T08:55:31.377Z,92200.88
2024-05-09T08:57:58.037Z,92215.31
2024-05-09T09:00:33.780Z,92203.25
2024-05-09T09:03:03.662Z,92199.13
2024-05-09T09:05:30.417Z,92202.53
2024-05-09T09:07:57.055Z,92209.13
2024-05-09T09:10:29.820Z,92214.59
2024-05-09T09:12:58.792Z,92215.19
2024-05-09T09:15:25.420Z,92201.31
2024-05-09T09:17:52.216Z,92216.41
2024-05-09T09:20:26.194Z,92202.91
2024-05-09T09:22:59.919Z,92204.69
2024-05-09T09:25:26.537Z,92211.31
2024-05-09T09:27:53.146Z,92207.50
2024-05-09T09:30:31.687Z,92220.00
2024-05-09T09:33:03.619Z,92218.22
2024-05-09T09:35:30.250Z,92231.03
2024-05-09T09:37:57.225Z,92215.19
2024-05-09T09:40:31.058Z,92219.44
2024-05-09T09:42:59.671Z,92225.75
2024-05-09T09:45:26.660Z,92230.06
2024-05-09T09:47:53.768Z,92212.81
2024-05-09T09:50:27.561Z,92208.53
2024-05-09T09:53:00.511Z,92220.06
2024-05-09T09:55:27.537Z,92208.88
2024-05-09T09:57:54.568Z,92210.88
2024-05-09T10:00:27.116Z,92217.25
2024-05-09T10:02:59.359Z,92201.56
2024-05-09T10:05:26.763Z,92210.59
2024-05-09T10:07:53.984Z,92208.63
2024-05-09T10:10:27.333Z,92213.72
2024-05-09T10:12:59.002Z,92216.22
2024-05-09T10:15:25.967Z,92212.88
2024-05-09T10:17:53.156Z,92208.16
2024-05-09T10:20:22.223Z,92205.16
2024-05-09T10:22:54.698Z,92204.19
2024-05-09T10:25:21.813Z,92210.06
2024-05-09T10:27:48.914Z,92205.44
2024-05-09T10:30:25.296Z,92217.91
2024-05-09T10:32:57.355Z,92215.38
2024-05-09T10:35:24.381Z,92212.13
2024-05-09T10:37:51.325Z,92223.25
2024-05-09T10:40:25.827Z,92210.94
2024-05-09T10:42:56.386Z,92219.94
2024-05-09T10:45:23.422Z,92215.47
2024-05-09T10:47:50.456Z,92206.09
2024-05-09T10:50:25.063Z,92215.06
2024-05-09T10:52:55.592Z,92212.22
2024-05-09T10:55:22.806Z,92209.13
2024-05-09T10:57:49.974Z,92210.09
2024-05-09T11:00:27.038Z,92213.41
2024-05-09T11:02:57.530Z,92209.84
2024-05-09T11:05:24.650Z,92201.06
2024-05-09T11:07:51.683Z,92212.31
2024-05-09T11:10:27.108Z,92204.34
2024-05-09T11:12:58.941Z,92201.59
2024-05-09T11:15:25.990Z,92210.38
2024-05-09T11:17:53.192Z,92204.88
2024-05-09T11:20:26.879Z,92202.44
2024-05-09T11:22:56.789Z,92208.78
2024-05-09T11:25:23.838Z,92204.91
2024-05-09T11:27:50.858Z,92209.50
2024-05-09T11:30:24.321Z,92206.06
2024-05-09T11:32:57.067Z,92205.78
2024-05-09T11:35:24.106Z,92204.19
2024-05-09T11:37:51.038Z,92204.13
2024-05-09T11:40:25.216Z,92190.47
2024-05-09T11:42:55.490Z,92200.78
2024-05-09T11:45:22.513Z,92193.97
2024-05-09T11:47:49.695Z,92197.09
2024-05-09T11:50:26.713Z,92199.38
2024-05-09T11:52:57.395Z,92200.13
2024-05-09T11:55:27.711Z,92197.00
2024-05-09T11:57:55.684Z,92197.19
2024-05-09T12:00:33.278Z,92197.28
2024-05-09T12:03:03.984Z,92194.72
2024-05-09T12:05:31.385Z,92188.56
2024-05-09T12:07:58.476Z,92191.16
2024-05-09T12:10:32.701Z,92191.41
2024-05-09T12:13:04.168Z,92189.13
2024-05-09T12:15:33.102Z,92182.50
2024-05-09T12:18:02.939Z,92182.31
2024-05-09T12:20:36.798Z,92175.69
2024-05-09T12:23:06.472Z,92185.00
2024-05-09T12:25:33.652Z,92174.56
2024-05-09T12:28:00.891Z,92179.47
2024-05-09T12:30:35.831Z,92183.25
2024-05-09T12:33:06.163Z,92178.38
2024-05-09T12:35:33.394Z,92181.13
2024-05-09T12:38:00.434Z,92181.59
2024-05-09T12:40:35.474Z,92178.94
2024-05-09T12:43:05.288Z,92171.56
2024-05-09T12:45:32.572Z,92175.69
2024-05-09T12:47:59.779Z,92180.66
2024-05-09T12:50:32.456Z,92172.78
2024-05-09T12:53:01.933Z,92174.06
2024-05-09T12:55:34.000Z,92173.97
2024-05-09T12:58:08.079Z,92160.00
2024-05-09T13:00:35.955Z,92162.41
2024-05-09T13:03:03.365Z,92170.47
2024-05-09T13:05:30.600Z,92171.09
2024-05-09T13:07:57.697Z,92164.97
2024-05-09T13:10:31.706Z,92168.34
2024-05-09T13:13:00.916Z,92157.88
2024-05-09T13:15:28.674Z,92160.53
2024-05-09T13:17:59.008Z,92168.34
2024-05-09T13:20:33.175Z,92170.13
2024-05-09T13:23:03.007Z,92155.25
2024-05-09T13:25:30.567Z,92156.41
2024-05-09T13:27:58.551Z,92150.84
2024-05-09T13:30:35.433Z,92147.19
2024-05-09T13:33:08.287Z,92145.22
2024-05-09T13:35:36.146Z,92151.47
2024-05-09T13:38:03.926Z,92149.59
2024-05-09T13:40:34.613Z,92146.41
2024-05-09T13:43:03.391Z,92150.50
2024-05-09T13:45:30.716Z,92141.38
2024-05-09T13:47:57.954Z,92138.03
2024-05-09T13:50:33.195Z,92138.00
2024-05-09T13:53:02.963Z,92139.28
2024-05-09T13:55:29.988Z,92126.72
2024-05-09T13:57:57.012Z,92140.00
2024-05-09T14:02:53.961Z,92129.88
2024-05-09T14:05:21.255Z,92132.69
2024-05-09T14:07:48.379Z,92136.09
2024-05-09T14:10:22.946Z,92142.75
2024-05-09T14:12:55.740Z,92139.81
2024-05-09T14:15:22.770Z,92139.94
2024-05-09T14:17:49.799Z,92131.22
2024-05-09T14:20:27.259Z,92127.19
2024-05-09T14:22:57.795Z,92135.69
2024-05-09T14:25:24.789Z,92132.03
2024-05-09T14:27:51.995Z,92129.47
2024-05-09T14:30:26.404Z,92125.38
2024-05-09T14:33:01.444Z,92125.56
2024-05-09T14:35:28.754Z,92118.69
2024-05-09T14:37:55.687Z,92120.63
2024-05-09T14:40:35.790Z,92116.31
2024-05-09T14:43:08.231Z,92113.81
2024-05-09T14:45:35.527Z,92112.44
2024-05-09T14:48:03.302Z,92116.06
2024-05-09T14:50:36.179Z,92109.53
2024-05-09T14:53:06.677Z,92109.16
2024-05-09T14:55:34.299Z,92116.50
2024-05-09T14:58:01.342Z,92110.91
2024-05-09T15:00:33.310Z,92111.28
2024-05-09T15:03:03.267Z,92104.13
2024-05-09T15:05:30.503Z,92104.97
2024-05-09T15:07:57.664Z,92107.72
2024-05-09T15:10:33.677Z,92104.94
2024-05-09T15:13:03.236Z,92113.06
2024-05-09T15:15:30.589Z,92116.25
2024-05-09T15:17:57.767Z,92099.75
2024-05-09T15:20:32.988Z,92111.28
2024-05-09T15:23:03.056Z,92112.31
2024-05-09T15:25:30.620Z,92107.09
2024-05-09T15:27:58.276Z,92106.56
2024-05-09T15:32:55.370Z,92105.41
2024-05-09T15:35:22.392Z,92108.16
2024-05-09T15:37:49.351Z,92110.59
2024-05-09T15:40:26.098Z,92108.13
2024-05-09T15:43:02.341Z,92106.56
2024-05-09T15:45:29.756Z,92102.78
2024-05-09T15:47:57.118Z,92101.91
2024-05-09T15:50:32.699Z,92096.91
2024-05-09T15:53:05.257Z,92097.06
2024-05-09T15:55:32.242Z,92100.31
2024-05-09T15:57:59.370Z,92094.22
2024-05-09T16:00:36.024Z,92093.84
2024-05-09T16:03:06.731Z,92097.19
2024-05-09T16:05:34.007Z,92095.06
2024-05-09T16:08:01.077Z,92089.09
2024-05-09T16:10:32.619Z,92092.13
2024-05-09T16:13:01.583Z,92095.25
2024-05-09T16:15:29.019Z,92088.38
2024-05-09T16:17:56.520Z,92088.59
2024-05-09T16:22:53.507Z,92077.25
2024-05-09T16:25:20.517Z,92087.66
2024-05-09T16:27:47.622Z,92088.78
2024-05-09T16:30:24.689Z,92081.84
2024-05-09T16:32:58.777Z,92094.53
2024-05-09T16:35:25.858Z,92088.09
2024-05-09T16:37:53.099Z,92089.47
2024-05-09T16:40:29.338Z,92078.13
2024-05-09T16:43:01.710Z,92084.50
2024-05-09T16:45:28.827Z,92081.09
2024-05-09T16:47:55.920Z,92074.31
2024-05-09T16:50:29.266Z,92073.03
2024-05-09T16:53:00.228Z,92069.81
2024-05-09T16:55:27.725Z,92077.56
2024-05-09T16:57:55.027Z,92086.84
2024-05-09T17:00:31.483Z,92079.06
2024-05-09T17:03:07.284Z,92083.19
2024-05-09T17:05:35.376Z,92078.19
2024-05-09T17:08:02.860Z,92071.28
2024-05-09T17:10:33.578Z,92069.38
2024-05-09T17:13:02.536Z,92070.78
2024-05-09T17:15:30.074Z,92072.78
2024-05-09T17:17:56.866Z,92076.00
2024-05-09T17:20:31.324Z,92080.13
2024-05-09T17:23:00.959Z,92071.25
2024-05-09T17:25:27.576Z,92076.47
2024-05-09T17:27:54.331Z,92080.59
2024-05-09T17:30:28.853Z,92079.34
2024-05-09T17:33:01.229Z,92077.00
2024-05-09T17:35:28.063Z,92077.47
2024-05-09T17:37:54.657Z,92075.81
2024-05-09T17:40:30.103Z,92077.78
2024-05-09T17:43:00.227Z,92072.19
2024-05-09T17:45:26.994Z,92082.03
2024-05-09T17:47:53.734Z,92068.69
2024-05-09T17:50:27.467Z,92078.25
2024-05-09T17:53:00.693Z,92073.41
2024-05-09T17:55:27.503Z,92077.44
2024-05-09T17:57:54.359Z,92078.56
2024-05-09T18:00:29.291Z,92076.72
2024-05-09T18:03:03.810Z,92079.91
2024-05-09T18:05:30.700Z,92080.44
2024-05-09T18:07:57.468Z,92077.75
2024-05-09T18:10:30.141Z,92079.03
2024-05-09T18:13:02.659Z,92078.31
2024-05-09T18:15:29.310Z,92077.13
2024-05-09T18:17:56.439Z,92078.78
2024-05-09T18:20:32.975Z,92086.91
2024-05-09T18:23:08.299Z,92087.66
2024-05-09T18:25:35.293Z,92080.78
2024-05-09T18:28:02.421Z,92086.91
2024-05-09T18:30:34.712Z,92089.84
2024-05-09T18:33:03.831Z,92093.44
2024-05-09T18:35:31.143Z,92086.59
2024-05-09T18:37:58.142Z,92087.88
2024-05-09T18:40:32.512Z,92085.13
2024-05-09T18:43:03.094Z,92078.28
2024-05-09T18:45:30.867Z,92078.50
2024-05-09T18:47:58.232Z,92077.31
2024-05-09T18:50:34.220Z,92077.44
2024-05-09T18:53:04.821Z,92076.81
2024-05-09T18:55:31.780Z,92074.38
2024-05-09T18:57:58.761Z,92080.81
2024-05-09T19:00:34.006Z,92081.63
2024-05-09T19:03:05.496Z,92078.91
2024-05-09T19:05:33.539Z,92083.13
2024-05-09T19:08:00.740Z,92078.38
2024-05-09T19:10:33.806Z,92084.38
2024-05-09T19:13:05.733Z,92087.50
2024-05-09T19:15:36.444Z,92087.50
2024-05-09T19:18:03.662Z,92091.94
2024-05-09T19:20:34.507Z,92092.69
2024-05-09T19:23:03.189Z,92098.91
2024-05-09T19:25:29.978Z,92098.47
2024-05-09T19:27:56.637Z,92101.81
2024-05-09T19:30:30.475Z,92098.78
